sensor_id;sensor_type;location;lat;lon;timestamp;pressure;altitude;pressure_sealevel;temperature;humidity
52227;BME280;38190;59.928;10.446;2022-09-20T00:00:39;100980.81;;;17.55;52.26
52227;BME280;38190;59.928;10.446;2022-09-20T00:03:45;100981.69;;;17.56;52.51
52227;BME280;38190;59.928;10.446;2022-09-20T00:06:46;100989.69;;;17.54;52.14
52227;BME280;38190;59.928;10.446;2022-09-20T00:09:46;100986.16;;;17.53;52.30
52227;BME280;38190;59.928;10.446;2022-09-20T00:12:47;100988.84;;;17.52;52.36
52227;BME280;38190;59.928;10.446;2022-09-20T00:15:47;100990.63;;;17.51;52.45
52227;BME280;38190;59.928;10.446;2022-09-20T00:18:49;100995.13;;;17.49;52.36
52227;BME280;38190;59.928;10.446;2022-09-20T00:21:50;100999.53;;;17.49;52.44
52227;BME280;38190;59.928;10.446;2022-09-20T00:24:50;100992.53;;;17.45;52.37
52227;BME280;38190;59.928;10.446;2022-09-20T00:27:51;101006.66;;;17.47;52.44
52227;BME280;38190;59.928;10.446;2022-09-20T00:30:52;100998.75;;;17.44;52.35
52227;BME280;38190;59.928;10.446;2022-09-20T00:33:57;101004.91;;;17.44;52.42
52227;BME280;38190;59.928;10.446;2022-09-20T00:37:16;101000.56;;;17.42;52.56
52227;BME280;38190;59.928;10.446;2022-09-20T00:40:19;101005.84;;;17.43;52.64
52227;BME280;38190;59.928;10.446;2022-09-20T00:46:41;101007.66;;;17.41;52.48
52227;BME280;38190;59.928;10.446;2022-09-20T00:49:44;101004.16;;;17.38;52.55
52227;BME280;38190;59.928;10.446;2022-09-20T00:52:46;101008.59;;;17.39;52.55
52227;BME280;38190;59.928;10.446;2022-09-20T00:55:58;100999.75;;;17.38;52.56
52227;BME280;38190;59.928;10.446;2022-09-20T00:59:20;101012.09;;;17.39;52.58
52227;BME280;38190;59.928;10.446;2022-09-20T01:02:27;101012.09;;;17.39;52.66
52227;BME280;38190;59.928;10.446;2022-09-20T01:05:29;101009.47;;;17.38;52.77
52227;BME280;38190;59.928;10.446;2022-09-20T01:08:31;101019.22;;;17.37;52.68
52227;BME280;38190;59.928;10.446;2022-09-20T01:11:34;101021.03;;;17.37;52.60
52227;BME280;38190;59.928;10.446;2022-09-20T01:14:35;101016.59;;;17.36;52.54
52227;BME280;38190;59.928;10.446;2022-09-20T01:17:37;101021.03;;;17.37;52.60
52227;BME280;38190;59.928;10.446;2022-09-20T01:20:41;101020.19;;;17.34;52.58
52227;BME280;38190;59.928;10.446;2022-09-20T01:27:15;101028.13;;;17.34;52.48
52227;BME280;38190;59.928;10.446;2022-09-20T01:30:29;101020.25;;;17.31;52.47
52227;BME280;38190;59.928;10.446;2022-09-20T01:33:48;101028.22;;;17.30;52.44
52227;BME280;38190;59.928;10.446;2022-09-20T01:37:41;101032.63;;;17.29;52.58
52227;BME280;38190;59.928;10.446;2022-09-20T01:40:52;101023.84;;;17.27;52.52
52227;BME280;38190;59.928;10.446;2022-09-20T01:47:31;101023.91;;;17.24;52.62
52227;BME280;38190;59.928;10.446;2022-09-20T01:50:50;101019.53;;;17.22;52.55
52227;BME280;38190;59.928;10.446;2022-09-20T02:07:12;101041.72;;;17.16;52.39
52227;BME280;38190;59.928;10.446;2022-09-20T02:17:17;101046.28;;;17.09;52.78
52227;BME280;38190;59.928;10.446;2022-09-20T02:20:29;101044.50;;;17.11;52.65
52227;BME280;38190;59.928;10.446;2022-09-20T02:23:50;101045.38;;;17.10;52.69
52227;BME280;38190;59.928;10.446;2022-09-20T02:30:14;101050.72;;;17.09;52.88
52227;BME280;38190;59.928;10.446;2022-09-20T02:39:44;101050.78;;;17.04;52.93
52227;BME280;38190;59.928;10.446;2022-09-20T02:43:07;101054.41;;;17.00;52.97
52227;BME280;38190;59.928;10.446;2022-09-20T02:49:56;101057.91;;;17.02;52.99
52227;BME280;38190;59.928;10.446;2022-09-20T02:53:22;101059.72;;;17.00;52.90
52227;BME280;38190;59.928;10.446;2022-09-20T03:00:03;101062.44;;;16.95;52.96
52227;BME280;38190;59.928;10.446;2022-09-20T03:03:17;101070.41;;;16.95;53.01
52227;BME280;38190;59.928;10.446;2022-09-20T03:23:04;101060.84;;;16.87;53.05
52227;BME280;38190;59.928;10.446;2022-09-20T03:30:04;101057.41;;;16.78;53.26
52227;BME280;38190;59.928;10.446;2022-09-20T03:46:45;101087.47;;;16.77;53.15
52227;BME280;38190;59.928;10.446;2022-09-20T04:00:19;101096.38;;;16.73;53.26
52227;BME280;38190;59.928;10.446;2022-09-20T04:03:35;101088.44;;;16.72;53.32
52227;BME280;38190;59.928;10.446;2022-09-20T04:07:09;101093.78;;;16.70;53.26
52227;BME280;38190;59.928;10.446;2022-09-20T04:10:31;101100.84;;;16.70;53.11
52227;BME280;38190;59.928;10.446;2022-09-20T04:13:38;101100.00;;;16.68;53.15
52227;BME280;38190;59.928;10.446;2022-09-20T04:16:50;101100.91;;;16.67;53.24
52227;BME280;38190;59.928;10.446;2022-09-20T04:23:33;101127.44;;;16.65;53.31
52227;BME280;38190;59.928;10.446;2022-09-20T04:26:39;101110.69;;;16.61;53.22
52227;BME280;38190;59.928;10.446;2022-09-20T04:29:51;101117.75;;;16.61;53.08
52227;BME280;38190;59.928;10.446;2022-09-20T04:39:47;101116.06;;;16.57;53.15
52227;BME280;38190;59.928;10.446;2022-09-20T04:43:10;101124.88;;;16.59;53.17
52227;BME280;38190;59.928;10.446;2022-09-20T04:56:05;101139.94;;;16.55;53.79
52227;BME280;38190;59.928;10.446;2022-09-20T05:13:40;101160.34;;;16.50;54.05
52227;BME280;38190;59.928;10.446;2022-09-20T05:29:37;101185.97;;;16.48;54.66
52227;BME280;38190;59.928;10.446;2022-09-20T05:39:53;101188.63;;;16.47;55.07
52227;BME280;38190;59.928;10.446;2022-09-20T05:42:40;101191.31;;;16.45;55.03
52227;BME280;38190;59.928;10.446;2022-09-20T05:48:59;101186.91;;;16.44;55.04
52227;BME280;38190;59.928;10.446;2022-09-20T05:52:13;101194.00;;;16.44;55.29
52227;BME280;38190;59.928;10.446;2022-09-20T06:01:39;101202.00;;;16.39;55.33
52227;BME280;38190;59.928;10.446;2022-09-20T06:14:53;101221.44;;;16.38;55.33
52227;BME280;38190;59.928;10.446;2022-09-20T06:21:41;101226.75;;;16.35;55.50
52227;BME280;38190;59.928;10.446;2022-09-20T06:24:55;101229.41;;;16.35;55.41
52227;BME280;38190;59.928;10.446;2022-09-20T06:28:07;101233.00;;;16.31;55.53
52227;BME280;38190;59.928;10.446;2022-09-20T06:31:11;101245.31;;;16.35;55.62
52227;BME280;38190;59.928;10.446;2022-09-20T06:34:12;101241.81;;;16.31;55.35
52227;BME280;38190;59.928;10.446;2022-09-20T06:37:42;101252.38;;;16.36;55.31
52227;BME280;38190;59.928;10.446;2022-09-20T06:41:03;101255.03;;;16.36;55.04
52227;BME280;38190;59.928;10.446;2022-09-20T06:44:22;101249.75;;;16.34;55.13
52227;BME280;38190;59.928;10.446;2022-09-20T06:47:23;101262.09;;;16.37;55.21
52227;BME280;38190;59.928;10.446;2022-09-20T06:50:26;101267.38;;;16.37;54.84
52227;BME280;38190;59.928;10.446;2022-09-20T06:53:29;101265.63;;;16.36;55.24
52227;BME280;38190;59.928;10.446;2022-09-20T06:56:32;101270.88;;;16.39;54.72
52227;BME280;38190;59.928;10.446;2022-09-20T06:59:35;101265.59;;;16.39;54.96
52227;BME280;38190;59.928;10.446;2022-09-20T07:02:36;101265.59;;;16.39;54.90
52227;BME280;38190;59.928;10.446;2022-09-20T07:05:37;101275.25;;;16.43;54.82
52227;BME280;38190;59.928;10.446;2022-09-20T07:08:38;101274.38;;;16.44;54.81
52227;BME280;38190;59.928;10.446;2022-09-20T07:11:39;101279.66;;;16.44;54.75
52227;BME280;38190;59.928;10.446;2022-09-20T07:14:39;101283.16;;;16.46;54.65
52227;BME280;38190;59.928;10.446;2022-09-20T07:17:43;101290.19;;;16.50;54.69
52227;BME280;38190;59.928;10.446;2022-09-20T07:20:44;101283.13;;;16.51;54.67
52227;BME280;38190;59.928;10.446;2022-09-20T07:23:45;101284.88;;;16.53;54.69
52227;BME280;38190;59.928;10.446;2022-09-20T07:26:58;101290.16;;;16.53;54.60
52227;BME280;38190;59.928;10.446;2022-09-20T07:30:00;101287.47;;;16.55;54.62
52227;BME280;38190;59.928;10.446;2022-09-20T07:33:01;101289.25;;;16.54;54.86
52227;BME280;38190;59.928;10.446;2022-09-20T07:36:02;101294.53;;;16.56;54.75
52227;BME280;38190;59.928;10.446;2022-09-20T07:39:02;101283.97;;;16.53;54.56
52227;BME280;38190;59.928;10.446;2022-09-20T07:42:03;101287.53;;;16.52;54.60
52227;BME280;38190;59.928;10.446;2022-09-20T07:45:06;101291.00;;;16.55;54.82
52227;BME280;38190;59.928;10.446;2022-09-20T07:48:07;101292.81;;;16.53;54.80
52227;BME280;38190;59.928;10.446;2022-09-20T07:51:12;101292.75;;;16.55;54.88
52227;BME280;38190;59.928;10.446;2022-09-20T07:54:13;101293.66;;;16.57;54.73
52227;BME280;38190;59.928;10.446;2022-09-20T07:57:13;101282.28;;;16.47;54.90
52227;BME280;38190;59.928;10.446;2022-09-20T08:00:14;101298.06;;;16.56;54.85
52227;BME280;38190;59.928;10.446;2022-09-20T08:03:15;101295.41;;;16.56;54.92
52227;BME280;38190;59.928;10.446;2022-09-20T08:06:15;101294.50;;;16.59;54.92
52227;BME280;38190;59.928;10.446;2022-09-20T08:09:17;101291.91;;;16.54;54.77
52227;BME280;38190;59.928;10.446;2022-09-20T08:12:18;101294.53;;;16.56;54.78
52227;BME280;38190;59.928;10.446;2022-09-20T08:15:19;101302.41;;;16.62;54.79
52227;BME280;38190;59.928;10.446;2022-09-20T08:18:19;101297.13;;;16.60;54.96
52227;BME280;38190;59.928;10.446;2022-09-20T08:21:20;101300.63;;;16.64;54.89
52227;BME280;38190;59.928;10.446;2022-09-20T08:24:21;101290.03;;;16.63;55.18
52227;BME280;38190;59.928;10.446;2022-09-20T08:27:21;101299.75;;;16.65;54.80
52227;BME280;38190;59.928;10.446;2022-09-20T08:30:22;101296.19;;;16.63;54.87
52227;BME280;38190;59.928;10.446;2022-09-20T08:33:22;101308.53;;;16.67;54.72
52227;BME280;38190;59.928;10.446;2022-09-20T08:36:25;101304.09;;;16.68;54.71
52227;BME280;38190;59.928;10.446;2022-09-20T08:39:25;101301.44;;;16.68;54.75
52227;BME280;38190;59.928;10.446;2022-09-20T08:42:29;101297.97;;;16.64;54.54
52227;BME280;38190;59.928;10.446;2022-09-20T08:45:30;101299.69;;;16.68;54.66
52227;BME280;38190;59.928;10.446;2022-09-20T08:48:32;101297.88;;;16.72;54.57
52227;BME280;38190;59.928;10.446;2022-09-20T08:51:37;101292.59;;;16.70;54.59
52227;BME280;38190;59.928;10.446;2022-09-20T08:54:38;101298.78;;;16.71;54.56
52227;BME280;38190;59.928;10.446;2022-09-20T08:57:40;101304.94;;;16.70;54.71
52227;BME280;38190;59.928;10.446;2022-09-20T09:00:42;101292.56;;;16.73;54.66
52227;BME280;38190;59.928;10.446;2022-09-20T09:03:43;101299.63;;;16.73;54.64
52227;BME280;38190;59.928;10.446;2022-09-20T09:06:45;101307.56;;;16.73;54.52
52227;BME280;38190;59.928;10.446;2022-09-20T09:09:47;101304.94;;;16.71;54.55
52227;BME280;38190;59.928;10.446;2022-09-20T09:12:50;101302.31;;;16.70;54.64
52227;BME280;38190;59.928;10.446;2022-09-20T09:16:05;101312.00;;;16.72;54.53
52227;BME280;38190;59.928;10.446;2022-09-20T09:19:32;101304.94;;;16.71;54.63
52227;BME280;38190;59.928;10.446;2022-09-20T09:22:44;101316.47;;;16.70;54.58
52227;BME280;38190;59.928;10.446;2022-09-20T09:25:45;101311.16;;;16.70;54.63
52227;BME280;38190;59.928;10.446;2022-09-20T09:28:46;101307.66;;;16.68;54.61
52227;BME280;38190;59.928;10.446;2022-09-20T09:31:49;101315.56;;;16.70;54.53
52227;BME280;38190;59.928;10.446;2022-09-20T09:34:51;101306.75;;;16.68;54.83
52227;BME280;38190;59.928;10.446;2022-09-20T09:37:57;101304.94;;;16.70;54.63
52227;BME280;38190;59.928;10.446;2022-09-20T09:41:00;101307.59;;;16.70;54.56
52227;BME280;38190;59.928;10.446;2022-09-20T09:44:25;101303.19;;;16.70;54.53
52227;BME280;38190;59.928;10.446;2022-09-20T09:47:36;101296.13;;;16.71;54.49
52227;BME280;38190;59.928;10.446;2022-09-20T09:50:36;101304.06;;;16.71;54.41
52227;BME280;38190;59.928;10.446;2022-09-20T09:53:38;101300.53;;;16.73;54.52
52227;BME280;38190;59.928;10.446;2022-09-20T10:06:39;101291.56;;;16.85;54.22
52227;BME280;38190;59.928;10.446;2022-09-20T10:10:03;101304.78;;;16.88;54.36
52227;BME280;38190;59.928;10.446;2022-09-20T10:26:55;101289.53;;;17.03;54.35
52227;BME280;38190;59.928;10.446;2022-09-20T10:37:09;101290.31;;;17.11;54.32
52227;BME280;38190;59.928;10.446;2022-09-20T10:53:35;101281.16;;;17.30;54.22
52227;BME280;38190;59.928;10.446;2022-09-20T10:56:46;101287.31;;;17.34;54.36
52227;BME280;38190;59.928;10.446;2022-09-20T11:06:45;101281.88;;;17.43;54.15
52227;BME280;38190;59.928;10.446;2022-09-20T11:09:54;101283.56;;;17.47;54.33
52227;BME280;38190;59.928;10.446;2022-09-20T11:13:05;101281.75;;;17.51;54.18
52227;BME280;38190;59.928;10.446;2022-09-20T11:16:12;101279.09;;;17.51;54.07
52227;BME280;38190;59.928;10.446;2022-09-20T11:19:31;101277.25;;;17.55;54.06
52227;BME280;38190;59.928;10.446;2022-09-20T11:22:45;101284.22;;;17.62;54.02
52227;BME280;38190;59.928;10.446;2022-09-20T11:25:50;101278.00;;;17.64;54.05
52227;BME280;38190;59.928;10.446;2022-09-20T11:28:55;101277.03;;;17.68;53.90
52227;BME280;38190;59.928;10.446;2022-09-20T11:32:11;101288.41;;;17.75;53.98
52227;BME280;38190;59.928;10.446;2022-09-20T11:38:54;101273.28;;;17.80;53.85
52227;BME280;38190;59.928;10.446;2022-09-20T11:41:59;101280.28;;;17.86;53.69
52227;BME280;38190;59.928;10.446;2022-09-20T11:45:02;101278.44;;;17.91;53.69
52227;BME280;38190;59.928;10.446;2022-09-20T11:48:08;101270.41;;;17.94;53.71
52227;BME280;38190;59.928;10.446;2022-09-20T11:54:33;101274.69;;;18.03;53.59
52227;BME280;38190;59.928;10.446;2022-09-20T11:57:37;101269.28;;;18.07;53.45
52227;BME280;38190;59.928;10.446;2022-09-20T12:00:40;101261.25;;;18.11;53.61
52227;BME280;38190;59.928;10.446;2022-09-20T12:03:43;101269.09;;;18.17;53.51
52227;BME280;38190;59.928;10.446;2022-09-20T12:06:45;101264.59;;;18.20;53.40
52227;BME280;38190;59.928;10.446;2022-09-20T12:09:57;101269.81;;;18.25;53.26
52227;BME280;38190;59.928;10.446;2022-09-20T12:13:02;101272.41;;;18.30;53.41
52227;BME280;38190;59.928;10.446;2022-09-20T12:16:15;101264.34;;;18.34;53.32
52227;BME280;38190;59.928;10.446;2022-09-20T12:22:27;101270.38;;;18.42;53.34
52227;BME280;38190;59.928;10.446;2022-09-20T12:25:38;101268.53;;;18.46;53.30
52227;BME280;38190;59.928;10.446;2022-09-20T12:31:46;101270.09;;;18.55;53.21
52227;BME280;38190;59.928;10.446;2022-09-20T12:34:47;101273.63;;;18.57;53.14
52227;BME280;38190;59.928;10.446;2022-09-20T12:37:48;101278.78;;;18.65;53.11
52227;BME280;38190;59.928;10.446;2022-09-20T12:41:00;101268.06;;;18.68;53.12
52227;BME280;38190;59.928;10.446;2022-09-20T12:44:05;101279.44;;;18.74;53.03
52227;BME280;38190;59.928;10.446;2022-09-20T12:47:25;101276.75;;;18.76;53.04
52227;BME280;38190;59.928;10.446;2022-09-20T12:50:27;101277.56;;;18.79;53.12
52227;BME280;38190;59.928;10.446;2022-09-20T12:54:18;101281.91;;;18.87;53.06
52227;BME280;38190;59.928;10.446;2022-09-20T12:57:30;101279.16;;;18.90;53.02
52227;BME280;38190;59.928;10.446;2022-09-20T13:00:36;101283.47;;;18.95;52.86
52227;BME280;38190;59.928;10.446;2022-09-20T13:03:44;101273.66;;;18.97;52.76
52227;BME280;38190;59.928;10.446;2022-09-20T13:06:45;101272.72;;;19.00;52.81
52227;BME280;38190;59.928;10.446;2022-09-20T13:09:48;101270.84;;;19.05;52.80
52227;BME280;38190;59.928;10.446;2022-09-20T13:12:56;101276.97;;;19.09;52.85
52227;BME280;38190;59.928;10.446;2022-09-20T13:15:59;101278.66;;;19.11;52.79
52227;BME280;38190;59.928;10.446;2022-09-20T13:19:45;101280.34;;;19.15;52.79
52227;BME280;38190;59.928;10.446;2022-09-20T13:22:47;101279.38;;;19.18;52.77
52227;BME280;38190;59.928;10.446;2022-09-20T13:26:13;101283.75;;;19.22;52.64
52227;BME280;38190;59.928;10.446;2022-09-20T13:32:24;101280.06;;;19.28;52.68
52227;BME280;38190;59.928;10.446;2022-09-20T13:35:26;101279.97;;;19.31;52.58
52227;BME280;38190;59.928;10.446;2022-09-20T13:38:35;101277.22;;;19.35;52.71
52227;BME280;38190;59.928;10.446;2022-09-20T13:41:37;101268.28;;;19.38;52.51
52227;BME280;38190;59.928;10.446;2022-09-20T13:44:41;101274.44;;;19.40;52.53
52227;BME280;38190;59.928;10.446;2022-09-20T13:47:43;101269.91;;;19.44;52.32
52227;BME280;38190;59.928;10.446;2022-09-20T13:50:46;101269.06;;;19.43;52.24
52227;BME280;38190;59.928;10.446;2022-09-20T13:53:48;101273.41;;;19.46;52.28
52227;BME280;38190;59.928;10.446;2022-09-20T13:56:49;101279.50;;;19.51;52.39
52227;BME280;38190;59.928;10.446;2022-09-20T13:59:51;101274.25;;;19.48;52.54
52227;BME280;38190;59.928;10.446;2022-09-20T14:02:54;101282.97;;;19.54;52.42
52227;BME280;38190;59.928;10.446;2022-09-20T14:05:58;101283.84;;;19.55;52.42
52227;BME280;38190;59.928;10.446;2022-09-20T14:09:02;101283.78;;;19.58;52.51
52227;BME280;38190;59.928;10.446;2022-09-20T14:12:04;101269.66;;;19.54;52.55
52227;BME280;38190;59.928;10.446;2022-09-20T14:15:07;101276.69;;;19.57;52.39
52227;BME280;38190;59.928;10.446;2022-09-20T14:18:15;101284.72;;;19.55;52.48
52227;BME280;38190;59.928;10.446;2022-09-20T14:21:20;101280.34;;;19.53;52.64
52227;BME280;38190;59.928;10.446;2022-09-20T14:24:26;101276.75;;;19.54;53.04
52227;BME280;38190;59.928;10.446;2022-09-20T14:27:28;101283.06;;;19.51;52.69
52227;BME280;38190;59.928;10.446;2022-09-20T14:30:33;101286.63;;;19.50;52.67
52227;BME280;38190;59.928;10.446;2022-09-20T14:33:39;101269.13;;;19.40;52.67
52227;BME280;38190;59.928;10.446;2022-09-20T14:36:41;101286.78;;;19.43;51.24
52227;BME280;38190;59.928;10.446;2022-09-20T14:39:55;101279.81;;;19.39;50.04
52227;BME280;38190;59.928;10.446;2022-09-20T14:42:59;101286.06;;;19.36;47.50
52227;BME280;38190;59.928;10.446;2022-09-20T14:46:02;101271.16;;;19.29;48.16
52227;BME280;38190;59.928;10.446;2022-09-20T14:55:29;101288.00;;;19.29;46.49
52227;BME280;38190;59.928;10.446;2022-09-20T14:58:58;101278.25;;;19.30;45.15
52227;BME280;38190;59.928;10.446;2022-09-20T15:01:55;101281.75;;;19.32;43.54
52227;BME280;38190;59.928;10.446;2022-09-20T15:04:58;101285.22;;;19.34;43.86
52227;BME280;38190;59.928;10.446;2022-09-20T15:08:00;101281.59;;;19.38;42.99
52227;BME280;38190;59.928;10.446;2022-09-20T15:11:02;101277.88;;;19.45;44.02
52227;BME280;38190;59.928;10.446;2022-09-20T15:14:03;101278.63;;;19.50;44.51
52227;BME280;38190;59.928;10.446;2022-09-20T15:17:04;101282.00;;;19.57;43.06
52227;BME280;38190;59.928;10.446;2022-09-20T15:20:29;101279.28;;;19.60;43.87
52227;BME280;38190;59.928;10.446;2022-09-20T15:23:32;101276.53;;;19.63;43.73
52227;BME280;38190;59.928;10.446;2022-09-20T15:26:33;101278.19;;;19.67;43.55
52227;BME280;38190;59.928;10.446;2022-09-20T15:29:34;101281.66;;;19.71;44.02
52227;BME280;38190;59.928;10.446;2022-09-20T15:32:34;101278.06;;;19.73;43.78
52227;BME280;38190;59.928;10.446;2022-09-20T15:35:35;101281.75;;;19.68;44.58
52227;BME280;38190;59.928;10.446;2022-09-20T15:38:35;101272.88;;;19.67;45.31
52227;BME280;38190;59.928;10.446;2022-09-20T15:41:36;101273.81;;;19.66;47.69
52227;BME280;38190;59.928;10.446;2022-09-20T15:44:37;101277.28;;;19.68;49.54
52227;BME280;38190;59.928;10.446;2022-09-20T15:47:38;101274.59;;;19.70;50.35
52227;BME280;38190;59.928;10.446;2022-09-20T15:50:39;101273.63;;;19.72;50.38
52227;BME280;38190;59.928;10.446;2022-09-20T15:53:45;101275.38;;;19.75;50.62
52227;BME280;38190;59.928;10.446;2022-09-20T15:56:47;101277.97;;;19.78;50.90
52227;BME280;38190;59.928;10.446;2022-09-20T15:59:49;101279.75;;;19.78;50.82
52227;BME280;38190;59.928;10.446;2022-09-20T16:02:49;101275.31;;;19.78;51.06
52227;BME280;38190;59.928;10.446;2022-09-20T16:05:58;101286.81;;;19.79;50.79
52227;BME280;38190;59.928;10.446;2022-09-20T16:08:59;101275.38;;;19.75;50.33
52227;BME280;38190;59.928;10.446;2022-09-20T16:11:59;101280.66;;;19.77;50.72
52227;BME280;38190;59.928;10.446;2022-09-20T16:15:00;101290.47;;;19.75;50.56
52227;BME280;38190;59.928;10.446;2022-09-20T16:18:01;101287.84;;;19.73;50.28
52227;BME280;38190;59.928;10.446;2022-09-20T16:21:20;101286.94;;;19.72;49.94
52227;BME280;38190;59.928;10.446;2022-09-20T16:24:28;101290.56;;;19.70;49.68
52227;BME280;38190;59.928;10.446;2022-09-20T16:27:29;101296.81;;;19.69;49.87
52227;BME280;38190;59.928;10.446;2022-09-20T16:30:33;101289.81;;;19.65;50.02
52227;BME280;38190;59.928;10.446;2022-09-20T16:33:34;101288.84;;;19.67;50.18
52227;BME280;38190;59.928;10.446;2022-09-20T16:36:35;101289.81;;;19.65;50.14
52227;BME280;38190;59.928;10.446;2022-09-20T16:39:36;101285.34;;;19.65;50.69
52227;BME280;38190;59.928;10.446;2022-09-20T16:42:37;101297.84;;;19.63;50.64
52227;BME280;38190;59.928;10.446;2022-09-20T16:45:37;101292.53;;;19.63;50.71
52227;BME280;38190;59.928;10.446;2022-09-20T16:48:38;101296.94;;;19.63;50.80
52227;BME280;38190;59.928;10.446;2022-09-20T16:51:40;101303.19;;;19.63;51.01
52227;BME280;38190;59.928;10.446;2022-09-20T16:54:41;101301.41;;;19.62;51.06
52227;BME280;38190;59.928;10.446;2022-09-20T16:57:41;101296.19;;;19.58;51.11
52227;BME280;38190;59.928;10.446;2022-09-20T17:00:42;101309.50;;;19.58;51.27
52227;BME280;38190;59.928;10.446;2022-09-20T17:03:43;101309.63;;;19.54;51.47
52227;BME280;38190;59.928;10.446;2022-09-20T17:06:44;101309.63;;;19.54;51.40
52227;BME280;38190;59.928;10.446;2022-09-20T17:09:45;101299.03;;;19.51;51.49
52227;BME280;38190;59.928;10.446;2022-09-20T17:12:45;101307.06;;;19.50;51.63
52227;BME280;38190;59.928;10.446;2022-09-20T17:15:47;101307.06;;;19.50;51.72
52227;BME280;38190;59.928;10.446;2022-09-20T17:19:04;101312.44;;;19.47;51.70
52227;BME280;38190;59.928;10.446;2022-09-20T17:22:08;101308.09;;;19.43;51.83
52227;BME280;38190;59.928;10.446;2022-09-20T17:25:08;101303.75;;;19.40;51.90
52227;BME280;38190;59.928;10.446;2022-09-20T17:28:09;101314.38;;;19.40;52.02
52227;BME280;38190;59.928;10.446;2022-09-20T17:31:12;101317.94;;;19.39;52.13
52227;BME280;38190;59.928;10.446;2022-09-20T17:34:14;101322.47;;;19.35;52.18
52227;BME280;38190;59.928;10.446;2022-09-20T17:37:14;101325.13;;;19.35;52.02
52227;BME280;38190;59.928;10.446;2022-09-20T17:40:15;101326.97;;;19.33;52.02
52227;BME280;38190;59.928;10.446;2022-09-20T17:43:15;101326.13;;;19.31;52.10
52227;BME280;38190;59.928;10.446;2022-09-20T17:46:36;101334.13;;;19.31;52.17
52227;BME280;38190;59.928;10.446;2022-09-20T17:49:37;101336.84;;;19.28;52.25
52227;BME280;38190;59.928;10.446;2022-09-20T17:52:40;101336.88;;;19.27;52.32
52227;BME280;38190;59.928;10.446;2022-09-20T17:55:41;101339.56;;;19.25;52.33
52227;BME280;38190;59.928;10.446;2022-09-20T17:58:42;101347.59;;;19.24;52.41
52227;BME280;38190;59.928;10.446;2022-09-20T18:01:44;101346.75;;;19.22;52.49
52227;BME280;38190;59.928;10.446;2022-09-20T18:04:44;101351.22;;;19.20;52.58
52227;BME280;38190;59.928;10.446;2022-09-20T18:07:46;101345.09;;;19.16;52.51
52227;BME280;38190;59.928;10.446;2022-09-20T18:10:54;101349.56;;;19.15;52.58
52227;BME280;38190;59.928;10.446;2022-09-20T18:13:55;101346.06;;;19.13;52.62
52227;BME280;38190;59.928;10.446;2022-09-20T18:16:57;101353.09;;;19.14;52.57
52227;BME280;38190;59.928;10.446;2022-09-20T18:19:59;101357.59;;;19.12;52.52
52227;BME280;38190;59.928;10.446;2022-09-20T18:23:00;101356.75;;;19.10;52.72
52227;BME280;38190;59.928;10.446;2022-09-20T18:26:05;101348.06;;;19.02;52.84
52227;BME280;38190;59.928;10.446;2022-09-20T18:29:21;101355.06;;;19.06;52.99
52227;BME280;38190;59.928;10.446;2022-09-20T18:32:22;101363.06;;;19.05;53.09
52227;BME280;38190;59.928;10.446;2022-09-20T18:35:26;101353.38;;;19.02;53.12
52227;BME280;38190;59.928;10.446;2022-09-20T18:38:26;101360.56;;;18.98;53.38
52227;BME280;38190;59.928;10.446;2022-09-20T18:41:29;101363.19;;;19.00;53.33
52227;BME280;38190;59.928;10.446;2022-09-20T18:44:31;101360.53;;;19.00;53.25
52227;BME280;38190;59.928;10.446;2022-09-20T18:47:32;101370.28;;;18.99;53.34
52227;BME280;38190;59.928;10.446;2022-09-20T18:50:33;101369.47;;;18.96;53.29
52227;BME280;38190;59.928;10.446;2022-09-20T18:53:36;101371.25;;;18.97;53.58
52227;BME280;38190;59.928;10.446;2022-09-20T18:56:38;101370.38;;;18.95;53.33
52227;BME280;38190;59.928;10.446;2022-09-20T18:59:42;101373.13;;;18.92;53.78
52227;BME280;38190;59.928;10.446;2022-09-20T19:03:10;101376.69;;;18.91;54.19
52227;BME280;38190;59.928;10.446;2022-09-20T19:06:18;101382.91;;;18.90;54.07
52227;BME280;38190;59.928;10.446;2022-09-20T19:16:21;101389.00;;;18.95;53.93
52227;BME280;38190;59.928;10.446;2022-09-20T19:26:26;101403.22;;;18.94;53.21
52227;BME280;38190;59.928;10.446;2022-09-20T19:29:27;101398.84;;;18.90;53.64
52227;BME280;38190;59.928;10.446;2022-09-20T19:32:28;101404.19;;;18.90;53.66
52227;BME280;38190;59.928;10.446;2022-09-20T19:35:34;101402.44;;;18.89;53.48
52227;BME280;38190;59.928;10.446;2022-09-20T19:38:44;101412.16;;;18.90;53.42
52227;BME280;38190;59.928;10.446;2022-09-20T19:42:08;101408.66;;;18.88;53.18
52227;BME280;38190;59.928;10.446;2022-09-20T19:45:47;101409.63;;;18.82;53.23
52227;BME280;38190;59.928;10.446;2022-09-20T19:52:07;101415.09;;;18.74;52.85
52227;BME280;38190;59.928;10.446;2022-09-20T19:55:12;101421.38;;;18.72;53.06
52227;BME280;38190;59.928;10.446;2022-09-20T19:58:13;101416.97;;;18.69;52.76
52227;BME280;38190;59.928;10.446;2022-09-20T20:01:14;101421.44;;;18.67;52.76
52227;BME280;38190;59.928;10.446;2022-09-20T20:04:15;101426.81;;;18.64;52.75
52227;BME280;38190;59.928;10.446;2022-09-20T20:20:49;101427.03;;;18.52;52.42
52227;BME280;38190;59.928;10.446;2022-09-20T20:24:01;101427.13;;;18.49;52.33
52227;BME280;38190;59.928;10.446;2022-09-20T20:27:04;101420.94;;;18.47;52.21
52227;BME280;38190;59.928;10.446;2022-09-20T20:30:05;101432.50;;;18.46;52.34
52227;BME280;38190;59.928;10.446;2022-09-20T20:33:05;101433.41;;;18.43;52.65